createdAt,value
2019-01-06T00:02:23.127Z,-4.26
2019-01-06T00:05:08.733Z,-4.11
2019-01-06T00:07:54.588Z,-4.01
2019-01-06T00:11:00.027Z,-4.10
2019-01-06T00:13:45.769Z,-4.24
2019-01-06T00:16:31.456Z,-4.07
2019-01-06T00:19:18.784Z,-4.47
2019-01-06T00:22:04.458Z,-4.37
2019-01-06T00:24:50.299Z,-4.27
2019-01-06T00:27:39.649Z,-4.27
2019-01-06T00:30:25.433Z,-4.14
2019-01-06T00:33:21.442Z,-4.14
2019-01-06T00:36:07.234Z,-4.04
2019-01-06T00:39:12.439Z,-4.04
2019-01-06T00:42:14.793Z,-4.14
2019-01-06T00:45:16.583Z,-3.98
2019-01-06T00:48:02.469Z,-3.96
2019-01-06T00:51:01.566Z,-3.94
2019-01-06T00:53:47.233Z,-3.94
2019-01-06T00:56:37.216Z,-3.86
2019-01-06T00:59:30.221Z,-4.18
2019-01-06T01:02:19.945Z,-4.18
2019-01-06T01:05:15.972Z,-4.39
2019-01-06T01:08:14.888Z,-4.12
2019-01-06T01:11:07.874Z,-3.90
2019-01-06T01:13:53.137Z,-3.85
2019-01-06T01:16:36.571Z,-3.85
2019-01-06T01:19:29.690Z,-3.85
2019-01-06T01:22:07.438Z,-3.85
2019-01-06T01:24:52.286Z,-3.99
2019-01-06T01:27:45.133Z,-4.07
2019-01-06T01:30:32.502Z,-4.07
2019-01-06T01:33:37.668Z,-3.92
2019-01-06T01:36:36.699Z,-4.35
2019-01-06T01:39:18.954Z,-4.50
2019-01-06T01:41:58.582Z,-4.50
2019-01-06T01:44:48.230Z,-4.34
2019-01-06T01:47:35.178Z,-4.31
2019-01-06T01:50:37.483Z,-4.07
2019-01-06T01:53:23.128Z,-4.06
2019-01-06T01:56:10.297Z,-4.06
2019-01-06T01:59:06.251Z,-4.03
2019-01-06T02:01:52.256Z,-4.03
2019-01-06T02:04:48.257Z,-4.44
2019-01-06T02:07:27.735Z,-4.86
2019-01-06T02:10:14.681Z,-4.86
2019-01-06T02:13:07.857Z,-4.94
2019-01-06T02:15:53.792Z,-4.94
2019-01-06T02:18:52.887Z,-5.08
2019-01-06T02:21:38.931Z,-5.04
2019-01-06T02:24:37.965Z,-4.35
2019-01-06T02:27:25.219Z,-4.33
2019-01-06T02:30:12.303Z,-3.97
2019-01-06T02:33:02.047Z,-3.51
2019-01-06T02:35:57.778Z,-3.51
2019-01-06T02:38:37.575Z,-3.02
2019-01-06T02:41:36.677Z,-3.05
2019-01-06T02:44:29.735Z,-3.31
2019-01-06T02:47:22.754Z,-3.42
2019-01-06T02:50:21.893Z,-3.32
2019-01-06T02:53:08.976Z,-3.48
2019-01-06T02:56:11.081Z,-3.64
2019-01-06T02:59:16.230Z,-3.64
2019-01-06T03:02:02.028Z,-3.88
2019-01-06T03:04:49.149Z,-3.74
2019-01-06T03:07:42.059Z,-3.77
2019-01-06T03:10:31.992Z,-3.18
2019-01-06T03:13:21.762Z,-3.18
2019-01-06T03:16:14.673Z,-3.00
2019-01-06T03:19:04.636Z,-3.07
2019-01-06T03:21:50.526Z,-3.06
2019-01-06T03:24:36.191Z,-3.06
2019-01-06T03:27:26.204Z,-2.96
2019-01-06T03:30:18.860Z,-2.85
2019-01-06T03:33:08.748Z,-2.93
2019-01-06T03:36:11.008Z,-3.09
2019-01-06T03:39:10.554Z,-3.54
2019-01-06T03:42:06.720Z,-2.95
2019-01-06T03:44:52.526Z,-2.56
2019-01-06T03:47:33.125Z,-2.35
2019-01-06T03:50:35.411Z,-2.47
2019-01-06T03:53:25.368Z,-2.87
2019-01-06T03:56:30.382Z,-2.54
2019-01-06T03:59:20.720Z,-2.22
2019-01-06T04:02:06.278Z,-2.75
2019-01-06T04:04:56.287Z,-2.90
2019-01-06T04:07:42.676Z,-2.89
2019-01-06T04:10:28.591Z,-3.09
2019-01-06T04:13:30.770Z,-3.09
2019-01-06T04:16:17.868Z,-3.22
2019-01-06T04:19:10.928Z,-3.23
2019-01-06T04:21:56.597Z,-3.16
2019-01-06T04:24:43.661Z,-3.16
2019-01-06T04:27:36.504Z,-3.24
2019-01-06T04:30:38.945Z,-3.41
2019-01-06T04:33:25.018Z,-3.36
2019-01-06T04:36:09.278Z,-3.37
2019-01-06T04:38:56.496Z,-3.31
2019-01-06T04:41:46.514Z,-3.17
2019-01-06T04:44:32.555Z,-3.20
2019-01-06T04:47:19.575Z,-3.35
2019-01-06T04:50:14.999Z,-3.35
2019-01-06T04:53:20.206Z,-3.88
2019-01-06T04:56:07.220Z,-3.76
2019-01-06T04:58:57.224Z,-3.76
2019-01-06T05:01:42.605Z,-3.86
2019-01-06T05:04:38.431Z,-4.24
2019-01-06T05:07:34.621Z,-4.09
2019-01-06T05:10:31.456Z,-3.88
2019-01-06T05:13:21.452Z,-4.09
2019-01-06T05:16:20.573Z,-4.09
2019-01-06T05:19:10.490Z,-4.07
2019-01-06T05:22:00.307Z,-3.65
2019-01-06T05:24:53.381Z,-3.65
2019-01-06T05:27:52.370Z,-3.70
2019-01-06T05:30:42.365Z,-3.82
2019-01-06T05:33:41.557Z,-3.14
2019-01-06T05:36:33.054Z,-3.45
2019-01-06T05:39:32.199Z,-3.59
2019-01-06T05:42:31.455Z,-3.83
2019-01-06T05:45:17.657Z,-3.73
2019-01-06T05:47:58.632Z,-3.80
2019-01-06T05:50:48.451Z,-3.80
2019-01-06T05:53:35.434Z,-4.10
2019-01-06T05:56:31.371Z,-3.77
2019-01-06T05:59:16.872Z,-3.77
2019-01-06T06:02:03.959Z,-3.73
2019-01-06T06:05:02.737Z,-3.93
2019-01-06T06:08:01.643Z,-3.87
2019-01-06T06:10:42.089Z,-3.89
2019-01-06T06:13:38.205Z,-4.01
2019-01-06T06:16:37.427Z,-4.01
2019-01-06T06:19:31.029Z,-4.00
2019-01-06T06:22:03.973Z,-3.92
2019-01-06T06:24:57.125Z,-3.76
2019-01-06T06:27:44.192Z,-3.76
2019-01-06T06:30:30.096Z,-3.80
2019-01-06T06:33:15.596Z,-3.40
2019-01-06T06:36:01.424Z,-3.51
2019-01-06T06:38:57.616Z,-3.16
2019-01-06T06:41:48.130Z,-3.16
2019-01-06T06:44:33.938Z,-3.16
2019-01-06T06:47:24.204Z,-3.13
2019-01-06T06:50:09.987Z,-3.11
2019-01-06T06:52:57.265Z,-2.82
2019-01-06T06:55:42.968Z,-3.07
2019-01-06T06:58:37.444Z,-2.68
2019-01-06T07:01:50.286Z,-2.61
2019-01-06T07:04:37.059Z,-2.75
2019-01-06T07:07:24.167Z,-2.75
2019-01-06T07:10:18.303Z,-3.06
2019-01-06T07:13:04.775Z,-3.09
2019-01-06T07:16:07.387Z,-3.03
2019-01-06T07:18:53.022Z,-3.03
2019-01-06T07:21:38.808Z,-3.21
2019-01-06T07:24:24.296Z,-3.02
2019-01-06T07:27:20.116Z,-3.02
2019-01-06T07:30:07.381Z,-2.59
2019-01-06T07:32:49.266Z,-2.59
2019-01-06T07:35:27.460Z,-2.14
2019-01-06T07:38:26.735Z,-1.92
2019-01-06T07:41:10.627Z,-1.72
2019-01-06T07:44:03.516Z,-1.00
2019-01-06T07:46:50.505Z,-1.00
2019-01-06T07:49:37.230Z,-0.62
2019-01-06T07:52:24.328Z,-0.50
2019-01-06T07:55:03.011Z,-0.32
2019-01-06T07:57:48.630Z,-0.12
2019-01-06T08:00:34.144Z,-0.13
2019-01-06T08:03:19.897Z,-0.16
2019-01-06T08:06:05.398Z,0.03
2019-01-06T08:08:53.118Z,0.19
2019-01-06T08:11:55.188Z,0.11
2019-01-06T08:14:40.929Z,0.10
2019-01-06T08:17:27.961Z,0.30
2019-01-06T08:20:13.472Z,0.47
2019-01-06T08:22:59.198Z,0.53
2019-01-06T08:25:49.259Z,0.50
2019-01-06T08:28:43.485Z,0.12
2019-01-06T08:31:30.473Z,0.00
2019-01-06T08:34:24.009Z,-0.10
2019-01-06T08:37:14.068Z,-0.12
2019-01-06T08:39:59.521Z,-0.13
2019-01-06T08:42:58.680Z,-0.39
2019-01-06T08:45:45.999Z,-0.12
2019-01-06T08:48:28.719Z,-0.01
2019-01-06T08:51:08.954Z,-0.01
2019-01-06T08:53:51.127Z,0.11
2019-01-06T08:56:38.316Z,0.26
2019-01-06T08:59:24.080Z,0.35
2019-01-06T09:02:20.167Z,0.52
2019-01-06T09:05:09.307Z,0.53
2019-01-06T09:07:56.642Z,0.63
2019-01-06T09:10:51.801Z,0.39
2019-01-06T09:13:38.915Z,0.52
2019-01-06T09:16:25.947Z,1.04
2019-01-06T09:19:12.923Z,0.91
2019-01-06T09:22:01.623Z,0.74
2019-01-06T09:24:54.624Z,0.61
2019-01-06T09:27:42.964Z,0.60
2019-01-06T09:30:30.061Z,0.24
2019-01-06T09:33:15.551Z,0.21
2019-01-06T09:36:11.698Z,0.33
2019-01-06T09:38:57.677Z,0.46
2019-01-06T09:41:43.466Z,0.61
2019-01-06T09:44:36.214Z,0.64
2019-01-06T09:47:22.137Z,0.64
2019-01-06T09:50:09.352Z,0.58
2019-01-06T09:52:59.666Z,0.62
2019-01-06T09:55:55.813Z,0.87
2019-01-06T09:58:42.185Z,0.66
2019-01-06T10:01:37.424Z,0.72
2019-01-06T10:04:23.238Z,0.50
2019-01-06T10:07:16.724Z,0.51
2019-01-06T10:10:02.564Z,0.43
2019-01-06T10:12:55.948Z,0.53
2019-01-06T10:15:49.107Z,0.61
2019-01-06T10:18:34.729Z,0.51
2019-01-06T10:21:22.139Z,0.44
2019-01-06T10:24:27.420Z,0.45
2019-01-06T10:27:13.315Z,0.52
2019-01-06T10:30:09.537Z,0.54
2019-01-06T10:32:56.855Z,0.69
2019-01-06T10:35:42.391Z,0.74
2019-01-06T10:38:39.919Z,0.58
2019-01-06T10:41:35.880Z,0.67
2019-01-06T10:44:22.105Z,0.79
2019-01-06T10:47:21.062Z,0.77
2019-01-06T10:50:06.915Z,0.79
2019-01-06T10:53:00.009Z,1.04
2019-01-06T10:55:58.993Z,1.08
2019-01-06T10:58:52.062Z,1.17
2019-01-06T11:01:41.048Z,1.14
2019-01-06T11:04:30.794Z,1.16
2019-01-06T11:07:30.048Z,1.11
2019-01-06T11:10:16.263Z,1.04
2019-01-06T11:13:12.476Z,1.43
2019-01-06T11:16:05.828Z,1.61
2019-01-06T11:18:52.950Z,1.62
2019-01-06T11:21:39.281Z,1.47
2019-01-06T11:24:24.800Z,1.36
2019-01-06T11:27:10.071Z,1.65
2019-01-06T11:30:03.719Z,1.49
2019-01-06T11:32:54.490Z,1.54
2019-01-06T11:35:56.407Z,1.67
2019-01-06T11:38:49.541Z,1.76
2019-01-06T11:41:46.929Z,1.49
2019-01-06T11:44:49.392Z,1.62
2019-01-06T11:47:32.468Z,1.67
2019-01-06T11:50:18.508Z,1.70
2019-01-06T11:53:06.431Z,1.82
2019-01-06T11:56:05.781Z,1.75
2019-01-06T11:58:55.687Z,1.81
2019-01-06T12:01:49.072Z,1.79
2019-01-06T12:05:07.207Z,1.68
2019-01-06T12:07:57.366Z,1.65
2019-01-06T12:11:02.824Z,1.49
2019-01-06T12:13:50.006Z,1.31
2019-01-06T12:16:41.928Z,1.27
2019-01-06T12:19:23.357Z,1.23
2019-01-06T12:22:13.176Z,1.02
2019-01-06T12:25:15.712Z,0.90
2019-01-06T12:27:54.068Z,0.73
2019-01-06T12:30:43.681Z,0.57
2019-01-06T12:33:42.620Z,0.53
2019-01-06T12:36:41.818Z,0.38
2019-01-06T12:39:27.913Z,0.26
2019-01-06T12:42:26.890Z,-0.08
2019-01-06T12:45:14.175Z,-0.26
2019-01-06T12:48:13.388Z,-0.37
2019-01-06T12:50:51.620Z,-0.56
2019-01-06T12:53:41.898Z,-0.63
2019-01-06T12:56:28.845Z,-0.77
2019-01-06T12:59:34.024Z,-0.77
2019-01-06T13:02:21.156Z,-0.65
2019-01-06T13:05:16.997Z,-0.43
2019-01-06T13:08:06.760Z,-0.10
2019-01-06T13:10:52.780Z,0.13
2019-01-06T13:13:45.931Z,0.33
2019-01-06T13:16:39.908Z,0.71
2019-01-06T13:19:30.140Z,0.91
2019-01-06T13:22:19.640Z,0.79
2019-01-06T13:25:06.781Z,1.03
2019-01-06T13:27:52.415Z,1.28
2019-01-06T13:30:48.917Z,1.51
2019-01-06T13:33:36.012Z,1.42
2019-01-06T13:36:23.331Z,1.41
2019-01-06T13:39:13.386Z,1.56
2019-01-06T13:41:59.056Z,1.46
2019-01-06T13:44:53.765Z,1.63
2019-01-06T13:47:39.823Z,1.34
2019-01-06T13:50:38.935Z,1.47
2019-01-06T13:53:40.972Z,1.45
2019-01-06T13:56:26.524Z,1.44
2019-01-06T13:59:12.181Z,1.43
2019-01-06T14:02:14.264Z,1.56
2019-01-06T14:04:53.736Z,1.60
2019-01-06T14:07:38.813Z,1.56
2019-01-06T14:10:25.204Z,1.67
2019-01-06T14:13:14.882Z,1.45
2019-01-06T14:16:02.454Z,1.40
2019-01-06T14:18:58.489Z,1.09
2019-01-06T14:21:49.448Z,1.09
2019-01-06T14:24:39.478Z,1.08
2019-01-06T14:27:30.871Z,1.58
2019-01-06T14:30:16.590Z,1.53
2019-01-06T14:33:07.562Z,1.52
2019-01-06T14:35:54.626Z,1.26
2019-01-06T14:38:59.720Z,1.28
2019-01-06T14:41:45.666Z,1.32
2019-01-06T14:44:31.487Z,1.36
2019-01-06T14:47:30.741Z,1.17
2019-01-06T14:50:18.044Z,1.45
2019-01-06T14:53:03.625Z,1.51
2019-01-06T14:55:43.231Z,1.41
2019-01-06T14:58:36.018Z,1.24
2019-01-06T15:01:21.895Z,1.11
2019-01-06T15:04:27.478Z,1.02
2019-01-06T15:07:14.460Z,1.32
2019-01-06T15:10:12.562Z,1.08
2019-01-06T15:13:14.631Z,0.98
2019-01-06T15:16:00.317Z,1.00
2019-01-06T15:18:46.084Z,0.83
2019-01-06T15:21:35.989Z,0.83
2019-01-06T15:24:35.224Z,0.78
2019-01-06T15:27:21.648Z,0.73
2019-01-06T15:30:09.117Z,0.79
2019-01-06T15:32:59.880Z,0.63
2019-01-06T15:35:41.940Z,0.65
2019-01-06T15:38:41.284Z,0.66
2019-01-06T15:41:26.799Z,0.78
2019-01-06T15:44:13.900Z,0.80
2019-01-06T15:47:03.062Z,0.78
2019-01-06T15:50:07.994Z,0.59
2019-01-06T15:52:58.410Z,0.75
2019-01-06T15:55:44.300Z,0.94
2019-01-06T15:58:37.367Z,0.73
2019-01-06T16:01:23.432Z,0.74
2019-01-06T16:04:11.199Z,0.65
2019-01-06T16:07:10.146Z,0.76
2019-01-06T16:10:09.560Z,0.97
2019-01-06T16:13:14.953Z,1.07
2019-01-06T16:16:01.200Z,0.93
2019-01-06T16:18:46.883Z,0.74
2019-01-06T16:21:33.883Z,0.54
2019-01-06T16:24:39.228Z,0.29
2019-01-06T16:27:25.498Z,0.37
2019-01-06T16:30:21.663Z,0.17
2019-01-06T16:33:09.295Z,0.25
2019-01-06T16:35:59.933Z,0.00
2019-01-06T16:38:46.927Z,-0.02
2019-01-06T16:41:32.784Z,-0.04
2019-01-06T16:44:31.925Z,-0.11
2019-01-06T16:47:34.288Z,0.03
2019-01-06T16:50:39.651Z,0.20
2019-01-06T16:53:25.388Z,0.17
2019-01-06T16:56:24.521Z,0.07
2019-01-06T16:59:26.877Z,0.32
2019-01-06T17:02:12.512Z,0.32
2019-01-06T17:04:58.395Z,-0.03
2019-01-06T17:07:44.001Z,-0.07
2019-01-06T17:10:37.083Z,-0.19
2019-01-06T17:13:27.141Z,-0.35
2019-01-06T17:16:07.325Z,-0.32
2019-01-06T17:19:03.712Z,-0.34
2019-01-06T17:21:49.713Z,-0.40
2019-01-06T17:24:36.716Z,-0.45
2019-01-06T17:27:23.838Z,-0.39
2019-01-06T17:30:13.715Z,-0.49
2019-01-06T17:32:57.434Z,-0.74
2019-01-06T17:35:50.569Z,-0.64
2019-01-06T17:38:36.407Z,-0.68
2019-01-06T17:41:35.495Z,-0.49
2019-01-06T17:44:37.585Z,-0.21
2019-01-06T17:47:28.249Z,-0.12
2019-01-06T17:50:18.687Z,-0.01
2019-01-06T17:53:21.298Z,0.10
2019-01-06T17:56:23.545Z,0.08
2019-01-06T17:59:22.678Z,0.11
2019-01-06T18:02:12.869Z,0.16
2019-01-06T18:05:01.880Z,0.21
2019-01-06T18:07:47.404Z,0.11
2019-01-06T18:10:37.622Z,0.23
2019-01-06T18:13:16.630Z,0.27
2019-01-06T18:16:09.470Z,0.17
2019-01-06T18:18:59.684Z,0.06
2019-01-06T18:21:49.913Z,0.12
2019-01-06T18:24:45.928Z,0.32
2019-01-06T18:27:32.989Z,0.18
2019-01-06T18:30:18.676Z,0.31
2019-01-06T18:33:05.819Z,0.37
2019-01-06T18:36:00.297Z,0.38
2019-01-06T18:39:02.962Z,0.26
2019-01-06T18:41:53.848Z,0.15
2019-01-06T18:44:40.939Z,0.13
2019-01-06T18:47:28.215Z,0.17
2019-01-06T18:50:14.118Z,0.14
2019-01-06T18:53:03.977Z,-0.05
2019-01-06T18:55:49.600Z,-0.17
2019-01-06T18:58:35.172Z,-0.29
2019-01-06T19:01:20.704Z,-0.18
2019-01-06T19:04:13.614Z,-0.12
2019-01-06T19:06:59.346Z,-0.23
2019-01-06T19:09:47.376Z,-0.10
2019-01-06T19:12:42.768Z,-0.10
2019-01-06T19:15:38.554Z,0.03
2019-01-06T19:18:19.519Z,-0.21
2019-01-06T19:21:42.602Z,-0.07
2019-01-06T19:24:42.218Z,-0.05
2019-01-06T19:27:28.073Z,-0.05
2019-01-06T19:30:33.471Z,-0.15
2019-01-06T19:33:19.013Z,-0.11
2019-01-06T19:36:08.811Z,-0.04
2019-01-06T19:38:54.024Z,0.08
2019-01-06T19:41:53.163Z,0.19
2019-01-06T19:44:51.795Z,0.19
2019-01-06T19:47:51.113Z,0.17
2019-01-06T19:50:36.670Z,0.01
2019-01-06T19:53:32.813Z,0.14
2019-01-06T19:56:25.701Z,-0.02
2019-01-06T19:59:21.801Z,-0.04
2019-01-06T20:02:08.982Z,0.14
2019-01-06T20:04:54.839Z,0.24
2019-01-06T20:07:40.381Z,0.08
2019-01-06T20:10:30.161Z,-0.08
2019-01-06T20:13:29.031Z,0.00
2019-01-06T20:16:14.731Z,0.10
2019-01-06T20:19:16.923Z,0.28
2019-01-06T20:22:16.109Z,0.20
2019-01-06T20:25:08.940Z,0.12
2019-01-06T20:27:54.740Z,-0.01
2019-01-06T20:30:44.671Z,0.00
2019-01-06T20:33:49.924Z,-0.09
2019-01-06T20:36:56.548Z,0.07
2019-01-06T20:39:42.371Z,0.04
2019-01-06T20:42:29.745Z,0.11
2019-01-06T20:45:15.628Z,0.00
2019-01-06T20:48:01.080Z,0.17
2019-01-06T20:50:48.190Z,0.17
2019-01-06T20:53:30.121Z,0.11
2019-01-06T20:56:21.916Z,0.19
2019-01-06T20:59:11.582Z,0.32
2019-01-06T21:02:16.911Z,0.34
2019-01-06T21:05:04.389Z,0.00
2019-01-06T21:07:50.366Z,0.07
2019-01-06T21:10:47.381Z,0.19
2019-01-06T21:13:35.289Z,0.03
2019-01-06T21:16:36.084Z,0.08
2019-01-06T21:19:26.243Z,0.05
2019-01-06T21:22:10.014Z,0.02
2019-01-06T21:24:55.849Z,-0.14
2019-01-06T21:27:46.740Z,-0.15
2019-01-06T21:30:37.031Z,0.03
2019-01-06T21:33:30.195Z,0.11
2019-01-06T21:36:23.291Z,-0.17
2019-01-06T21:39:19.266Z,-0.12
2019-01-06T21:42:06.463Z,-0.23
2019-01-06T21:45:07.934Z,-0.29
2019-01-06T21:48:04.063Z,-0.45
2019-01-06T21:50:50.070Z,-0.66
2019-01-06T21:53:33.849Z,-0.48
2019-01-06T21:56:19.727Z,-0.45
2019-01-06T21:59:15.714Z,-0.31
2019-01-06T22:02:16.071Z,-0.56
2019-01-06T22:05:18.480Z,-0.56
2019-01-06T22:08:08.372Z,-0.46
2019-01-06T22:10:58.635Z,-0.51
2019-01-06T22:13:54.660Z,-0.47
2019-01-06T22:16:44.692Z,-0.49
2019-01-06T22:19:34.460Z,-0.44
2019-01-06T22:22:12.350Z,-0.49
2019-01-06T22:25:05.581Z,-0.56
2019-01-06T22:27:47.110Z,-0.68
2019-01-06T22:30:32.928Z,-0.54
2019-01-06T22:33:25.849Z,-0.53
2019-01-06T22:36:12.807Z,-0.60
2019-01-06T22:38:58.726Z,-0.78
2019-01-06T22:41:45.407Z,-0.57
2019-01-06T22:44:32.467Z,-0.47
2019-01-06T22:47:28.426Z,-0.58
2019-01-06T22:50:09.578Z,-0.74
2019-01-06T22:52:55.648Z,-0.53
2019-01-06T22:55:45.766Z,-0.59
2019-01-06T22:58:36.808Z,-0.44
2019-01-06T23:01:22.130Z,-0.50
2019-01-06T23:04:09.032Z,-0.42
2019-01-06T23:07:04.533Z,-0.33
2019-01-06T23:09:53.626Z,-0.34
2019-01-06T23:12:41.282Z,-0.46
2019-01-06T23:15:37.225Z,-0.43
2019-01-06T23:18:22.963Z,-0.41
2019-01-06T23:21:08.601Z,-0.43
2019-01-06T23:23:55.694Z,-0.33
2019-01-06T23:26:53.669Z,-0.33
2019-01-06T23:29:39.438Z,-0.43
2019-01-06T23:32:22.618Z,-0.39
2019-01-06T23:35:04.713Z,-0.36
2019-01-06T23:37:50.351Z,-0.39
2019-01-06T23:40:35.868Z,-0.19
2019-01-06T23:43:21.557Z,-0.21
2019-01-06T23:46:14.351Z,-0.33
2019-01-06T23:49:07.554Z,-0.48
2019-01-06T23:51:54.537Z,-0.55
2019-01-06T23:54:40.171Z,-0.59
2019-01-06T23:57:45.396Z,-0.40
